createdAt,value
2023-02-09T00:00:26.662Z,1.50
2023-02-09T00:02:53.600Z,1.40
2023-02-09T00:05:20.597Z,1.30
2023-02-09T00:07:47.441Z,1.30
2023-02-09T00:10:14.255Z,1.30
2023-02-09T00:12:59.564Z,1.30
2023-02-09T00:15:26.352Z,1.20
2023-02-09T00:17:53.130Z,1.30
2023-02-09T00:20:20.146Z,1.30
2023-02-09T00:22:46.977Z,1.30
2023-02-09T00:25:13.842Z,1.10
2023-02-09T00:27:40.663Z,1.10
2023-02-09T00:30:08.039Z,1.00
2023-02-09T00:32:34.878Z,1.00
2023-02-09T00:35:01.764Z,1.00
2023-02-09T00:37:28.575Z,1.00
2023-02-09T00:39:55.477Z,1.00
2023-02-09T00:42:22.339Z,0.90
2023-02-09T00:44:49.152Z,0.90
2023-02-09T00:47:16.071Z,0.80
2023-02-09T00:49:42.891Z,0.80
2023-02-09T00:52:10.212Z,0.80
2023-02-09T00:54:37.257Z,0.90
2023-02-09T00:57:05.562Z,0.90
2023-02-09T00:59:34.516Z,0.90
2023-02-09T01:02:02.123Z,0.90
2023-02-09T01:04:29.264Z,0.90
2023-02-09T01:06:56.232Z,0.90
2023-02-09T01:09:23.238Z,0.90
2023-02-09T01:11:50.486Z,0.80
2023-02-09T01:14:17.425Z,0.60
2023-02-09T01:16:44.314Z,0.60
2023-02-09T01:19:13.230Z,0.70
2023-02-09T01:21:40.556Z,0.70
2023-02-09T01:24:07.633Z,0.70
2023-02-09T01:26:34.677Z,0.60
2023-02-09T01:29:01.534Z,0.60
2023-02-09T01:31:31.738Z,0.60
2023-02-09T01:34:00.788Z,0.60
2023-02-09T01:36:28.730Z,0.60
2023-02-09T01:38:57.116Z,0.70
2023-02-09T01:41:24.314Z,0.70
2023-02-09T01:43:59.419Z,0.80
2023-02-09T01:46:29.428Z,0.80
2023-02-09T01:49:18.280Z,0.80
2023-02-09T01:51:48.993Z,0.90
2023-02-09T01:54:20.901Z,0.90
2023-02-09T01:56:51.984Z,0.90
2023-02-09T01:59:20.110Z,0.90
2023-02-09T02:01:47.031Z,0.90
2023-02-09T02:04:14.466Z,1.00
2023-02-09T02:06:41.450Z,1.00
2023-02-09T02:09:13.959Z,1.00
2023-02-09T02:11:44.194Z,1.00
2023-02-09T02:14:30.318Z,1.00
2023-02-09T02:17:29.589Z,1.00
2023-02-09T02:20:11.125Z,1.00
2023-02-09T02:23:11.665Z,1.00
2023-02-09T02:25:56.475Z,1.10
2023-02-09T02:28:48.147Z,1.10
2023-02-09T02:31:26.692Z,1.10
2023-02-09T02:33:58.628Z,1.10
2023-02-09T02:36:35.599Z,1.10
2023-02-09T02:39:29.960Z,1.00
2023-02-09T02:42:37.433Z,1.00
2023-02-09T02:45:32.914Z,1.00
2023-02-09T02:48:18.184Z,1.00
2023-02-09T02:50:54.210Z,1.00
2023-02-09T02:53:23.421Z,0.90
2023-02-09T02:55:52.425Z,0.90
2023-02-09T02:58:22.566Z,0.90
2023-02-09T03:00:52.994Z,0.90
2023-02-09T03:03:23.050Z,0.90
2023-02-09T03:05:51.788Z,0.90
2023-02-09T03:08:18.582Z,0.90
2023-02-09T03:10:46.239Z,0.90
2023-02-09T03:13:34.257Z,1.00
2023-02-09T03:16:27.456Z,1.00
2023-02-09T03:19:14.520Z,0.90
2023-02-09T03:21:44.493Z,1.00
2023-02-09T03:24:26.839Z,1.00
2023-02-09T03:27:23.017Z,1.00
2023-02-09T03:29:54.656Z,1.00
2023-02-09T03:32:23.334Z,0.90
2023-02-09T03:34:50.447Z,0.90
2023-02-09T03:37:18.139Z,0.90
2023-02-09T03:39:45.064Z,0.90
2023-02-09T03:42:11.883Z,0.80
2023-02-09T03:44:38.962Z,0.80
2023-02-09T03:47:08.377Z,0.80
2023-02-09T03:49:39.931Z,0.80
2023-02-09T03:52:09.837Z,0.80
2023-02-09T03:54:37.035Z,0.80
2023-02-09T03:57:04.344Z,0.80
2023-02-09T03:59:35.458Z,0.70
2023-02-09T04:02:02.876Z,0.70
2023-02-09T04:04:29.721Z,0.70
2023-02-09T04:06:56.806Z,0.70
2023-02-09T04:09:24.370Z,0.70
2023-02-09T04:11:51.547Z,0.70
2023-02-09T04:14:18.703Z,0.70
2023-02-09T04:16:46.107Z,0.80
2023-02-09T04:19:13.377Z,0.70
2023-02-09T04:21:40.850Z,0.70
2023-02-09T04:24:08.495Z,0.70
2023-02-09T04:26:35.473Z,0.80
2023-02-09T04:29:02.325Z,0.70
2023-02-09T04:31:31.305Z,0.70
2023-02-09T04:33:58.177Z,0.70
2023-02-09T04:36:25.140Z,0.70
2023-02-09T04:38:52.028Z,0.70
2023-02-09T04:41:18.860Z,0.70
2023-02-09T04:43:48.771Z,0.70
2023-02-09T04:46:17.315Z,0.70
2023-02-09T04:48:44.680Z,0.60
2023-02-09T04:51:11.693Z,0.60
2023-02-09T04:53:39.880Z,0.60
2023-02-09T04:56:07.204Z,0.60
2023-02-09T04:58:52.528Z,0.60
2023-02-09T05:01:23.024Z,0.60
2023-02-09T05:03:50.143Z,0.60
2023-02-09T05:06:17.609Z,0.60
2023-02-09T05:08:44.506Z,0.60
2023-02-09T05:11:12.115Z,0.60
2023-02-09T05:13:39.664Z,0.60
2023-02-09T05:16:08.454Z,0.50
2023-02-09T05:18:36.267Z,0.50
2023-02-09T05:21:04.001Z,0.40
2023-02-09T05:23:31.134Z,0.40
2023-02-09T05:25:58.114Z,0.40
2023-02-09T05:28:25.445Z,0.40
2023-02-09T05:30:53.942Z,0.40
2023-02-09T05:33:21.919Z,0.40
2023-02-09T05:35:50.394Z,0.40
2023-02-09T05:38:17.258Z,0.40
2023-02-09T05:40:45.201Z,0.30
2023-02-09T05:43:12.451Z,0.20
2023-02-09T05:45:39.608Z,0.30
2023-02-09T05:48:07.342Z,0.30
2023-02-09T05:50:35.833Z,0.40
2023-02-09T05:53:02.692Z,0.40
2023-02-09T05:55:29.565Z,0.50
2023-02-09T05:57:56.526Z,0.50
2023-02-09T06:00:25.115Z,0.40
2023-02-09T06:02:52.130Z,0.40
2023-02-09T06:05:21.058Z,0.40
2023-02-09T06:07:48.707Z,0.50
2023-02-09T06:10:16.661Z,0.50
2023-02-09T06:12:43.602Z,0.50
2023-02-09T06:15:11.016Z,0.50
2023-02-09T06:17:37.855Z,0.50
2023-02-09T06:20:05.408Z,0.50
2023-02-09T06:22:32.298Z,0.40
2023-02-09T06:24:59.211Z,0.30
2023-02-09T06:27:26.194Z,0.30
2023-02-09T06:29:53.102Z,0.30
2023-02-09T06:32:20.104Z,0.40
2023-02-09T06:34:47.124Z,0.40
2023-02-09T06:37:14.053Z,0.40
2023-02-09T06:39:41.033Z,0.40
2023-02-09T06:42:08.002Z,0.30
2023-02-09T06:44:34.841Z,0.40
2023-02-09T06:47:01.714Z,0.40
2023-02-09T06:49:28.602Z,0.30
2023-02-09T06:51:55.659Z,0.30
2023-02-09T06:54:22.849Z,0.30
2023-02-09T06:56:49.697Z,0.40
2023-02-09T06:59:16.512Z,0.30
2023-02-09T07:01:43.547Z,0.40
2023-02-09T07:04:10.558Z,0.40
2023-02-09T07:06:37.436Z,0.50
2023-02-09T07:09:04.392Z,0.50
2023-02-09T07:11:31.418Z,0.50
2023-02-09T07:13:58.252Z,0.50
2023-02-09T07:16:25.097Z,0.50
2023-02-09T07:18:51.990Z,0.50
2023-02-09T07:21:21.412Z,0.50
2023-02-09T07:23:48.847Z,0.50
2023-02-09T07:26:17.413Z,0.60
2023-02-09T07:28:44.511Z,0.50
2023-02-09T07:31:13.789Z,0.60
2023-02-09T07:33:41.180Z,0.60
2023-02-09T07:36:11.374Z,0.60
2023-02-09T07:38:39.453Z,0.70
2023-02-09T07:41:08.368Z,0.70
2023-02-09T07:43:35.187Z,0.70
2023-02-09T07:46:07.139Z,0.70
2023-02-09T07:48:34.508Z,0.80
2023-02-09T07:51:01.765Z,0.80
2023-02-09T07:53:28.793Z,0.80
2023-02-09T07:55:56.257Z,0.90
2023-02-09T07:58:23.459Z,0.90
2023-02-09T08:00:51.533Z,1.00
2023-02-09T08:03:20.975Z,0.90
2023-02-09T08:06:00.484Z,1.00
2023-02-09T08:08:27.813Z,1.10
2023-02-09T08:11:00.845Z,1.10
2023-02-09T08:13:31.171Z,1.10
2023-02-09T08:16:04.732Z,1.10
2023-02-09T08:18:45.022Z,1.10
2023-02-09T08:21:14.488Z,1.10
2023-02-09T08:23:43.984Z,1.10
2023-02-09T08:26:13.643Z,1.40
2023-02-09T08:28:44.885Z,1.40
2023-02-09T08:31:17.582Z,1.40
2023-02-09T08:33:46.402Z,1.40
2023-02-09T08:36:13.940Z,1.50
2023-02-09T08:38:41.427Z,1.60
2023-02-09T08:41:10.354Z,1.60
2023-02-09T08:43:37.185Z,1.70
2023-02-09T08:46:10.072Z,1.80
2023-02-09T08:48:39.368Z,1.70
2023-02-09T08:51:07.434Z,1.80
2023-02-09T08:53:35.310Z,1.90
2023-02-09T08:56:02.118Z,2.00
2023-02-09T08:58:30.214Z,2.00
2023-02-09T09:00:57.535Z,2.20
2023-02-09T09:03:29.910Z,2.30
2023-02-09T09:06:02.215Z,2.30
2023-02-09T09:08:29.644Z,2.30
2023-02-09T09:10:57.126Z,2.10
2023-02-09T09:13:24.941Z,2.40
2023-02-09T09:15:52.745Z,2.50
2023-02-09T09:18:19.761Z,2.50
2023-02-09T09:20:46.731Z,2.60
2023-02-09T09:23:14.170Z,2.70
2023-02-09T09:25:42.361Z,2.80
2023-02-09T09:28:09.733Z,2.80
2023-02-09T09:30:37.450Z,2.80
2023-02-09T09:33:04.790Z,2.80
2023-02-09T09:35:31.945Z,2.90
2023-02-09T09:38:01.817Z,3.00
2023-02-09T09:40:32.094Z,3.10
2023-02-09T09:43:05.079Z,3.20
2023-02-09T09:45:35.439Z,3.30
2023-02-09T09:48:02.858Z,3.30
2023-02-09T09:50:42.991Z,3.30
2023-02-09T09:53:33.157Z,3.40
2023-02-09T09:56:03.940Z,3.20
2023-02-09T09:58:32.458Z,3.30
2023-02-09T10:00:59.580Z,3.40
2023-02-09T10:03:27.145Z,3.50
2023-02-09T10:05:59.776Z,3.60
2023-02-09T10:08:39.447Z,3.50
2023-02-09T10:11:12.731Z,3.70
2023-02-09T10:13:54.588Z,3.70
2023-02-09T10:16:27.262Z,3.80
2023-02-09T10:19:22.142Z,3.90
2023-02-09T10:21:49.393Z,4.00
2023-02-09T10:24:29.555Z,4.00
2023-02-09T10:27:08.327Z,4.10
2023-02-09T10:29:36.570Z,4.20
2023-02-09T10:32:05.788Z,4.50
2023-02-09T10:34:38.664Z,4.80
2023-02-09T10:37:22.012Z,4.70
2023-02-09T10:40:12.362Z,4.60
2023-02-09T10:42:51.471Z,4.80
2023-02-09T10:45:37.147Z,4.80
2023-02-09T10:48:13.092Z,4.90
2023-02-09T10:51:07.364Z,4.90
2023-02-09T10:53:38.735Z,5.10
2023-02-09T10:56:24.517Z,5.00
2023-02-09T10:58:52.874Z,5.30
2023-02-09T11:01:26.109Z,5.40
2023-02-09T11:04:17.402Z,5.50
2023-02-09T11:06:52.299Z,5.70
2023-02-09T11:09:28.657Z,5.60
2023-02-09T11:11:56.365Z,5.90
2023-02-09T11:14:23.810Z,5.70
2023-02-09T11:16:56.564Z,5.80
2023-02-09T11:19:35.438Z,5.80
2023-02-09T11:22:17.858Z,5.90
2023-02-09T11:25:04.773Z,5.90
2023-02-09T11:27:37.868Z,6.00
2023-02-09T11:30:30.973Z,5.90
2023-02-09T11:33:09.884Z,6.20
2023-02-09T11:35:56.630Z,6.00
2023-02-09T11:38:40.096Z,6.10
2023-02-09T11:41:31.110Z,6.30
2023-02-09T11:44:01.338Z,6.20
2023-02-09T11:46:31.468Z,6.40
2023-02-09T11:49:04.382Z,6.50
2023-02-09T11:51:37.305Z,6.40
2023-02-09T11:54:17.237Z,6.30
2023-02-09T11:56:51.151Z,6.30
2023-02-09T11:59:30.134Z,6.30
2023-02-09T12:02:18.408Z,6.30
2023-02-09T12:04:57.103Z,6.60
2023-02-09T12:07:48.761Z,6.90
2023-02-09T12:10:28.986Z,6.60
2023-02-09T12:13:06.028Z,7.00
2023-02-09T12:15:38.355Z,6.60
2023-02-09T12:18:18.928Z,6.50
2023-02-09T12:20:56.303Z,6.50
2023-02-09T12:23:43.455Z,6.40
2023-02-09T12:26:16.308Z,6.50
2023-02-09T12:29:03.574Z,6.60
2023-02-09T12:31:51.342Z,6.70
2023-02-09T12:34:27.605Z,6.60
2023-02-09T12:37:16.686Z,6.70
2023-02-09T12:40:20.301Z,6.90
2023-02-09T12:43:07.351Z,6.90
2023-02-09T12:45:41.186Z,6.90
2023-02-09T12:48:07.917Z,6.80
2023-02-09T12:50:43.830Z,6.70
2023-02-09T12:53:22.869Z,6.60
2023-02-09T12:56:11.059Z,6.70
2023-02-09T12:58:54.249Z,6.60
2023-02-09T13:01:21.224Z,6.60
2023-02-09T13:04:03.114Z,6.50
2023-02-09T13:06:46.924Z,6.70
2023-02-09T13:09:20.881Z,6.60
2023-02-09T13:11:51.600Z,6.70
2023-02-09T13:14:22.344Z,6.70
2023-02-09T13:17:04.217Z,6.80
2023-02-09T13:20:07.193Z,6.80
2023-02-09T13:22:46.127Z,6.80
2023-02-09T13:25:39.586Z,6.60
2023-02-09T13:28:18.865Z,6.50
2023-02-09T13:30:47.309Z,6.70
2023-02-09T13:33:17.097Z,6.90
2023-02-09T13:36:11.140Z,6.80
2023-02-09T13:38:43.281Z,6.90
2023-02-09T13:41:31.015Z,6.80
2023-02-09T13:43:58.145Z,7.00
2023-02-09T13:46:34.295Z,6.90
2023-02-09T13:49:11.888Z,6.80
2023-02-09T13:51:38.853Z,7.10
2023-02-09T13:54:05.880Z,6.90
2023-02-09T13:56:34.774Z,7.00
2023-02-09T13:59:01.921Z,7.10
2023-02-09T14:01:33.064Z,7.00
2023-02-09T14:04:05.421Z,6.90
2023-02-09T14:06:52.355Z,6.90
2023-02-09T14:09:29.837Z,7.00
2023-02-09T14:12:12.050Z,7.10
2023-02-09T14:15:01.745Z,6.90
2023-02-09T14:17:35.332Z,6.80
2023-02-09T14:20:02.473Z,6.90
2023-02-09T14:22:37.917Z,6.90
2023-02-09T14:25:13.596Z,7.10
2023-02-09T14:27:41.183Z,7.10
2023-02-09T14:30:21.295Z,7.10
2023-02-09T14:32:53.558Z,7.10
2023-02-09T14:35:26.991Z,7.00
2023-02-09T14:37:56.646Z,7.00
2023-02-09T14:40:34.690Z,7.00
2023-02-09T14:43:08.974Z,7.00
2023-02-09T14:45:40.520Z,7.10
2023-02-09T14:48:26.372Z,7.10
2023-02-09T14:50:54.397Z,6.90
2023-02-09T14:53:23.376Z,6.90
2023-02-09T14:55:50.309Z,6.80
2023-02-09T14:58:26.431Z,6.80
2023-02-09T15:00:54.452Z,6.90
2023-02-09T15:03:21.949Z,6.80
2023-02-09T15:05:51.344Z,6.70
2023-02-09T15:08:21.779Z,6.80
2023-02-09T15:11:00.771Z,6.80
2023-02-09T15:13:32.676Z,6.80
2023-02-09T15:15:59.580Z,6.80
2023-02-09T15:18:27.800Z,6.80
2023-02-09T15:20:54.947Z,6.80
2023-02-09T15:23:21.778Z,6.70
2023-02-09T15:25:48.905Z,6.70
2023-02-09T15:28:28.591Z,6.70
2023-02-09T15:30:56.904Z,6.70
2023-02-09T15:33:25.382Z,6.60
2023-02-09T15:35:52.539Z,6.70
2023-02-09T15:38:19.941Z,6.70
2023-02-09T15:41:07.743Z,6.70
2023-02-09T15:43:54.044Z,6.70
2023-02-09T15:46:39.984Z,6.60
2023-02-09T15:49:07.337Z,6.50
2023-02-09T15:51:37.040Z,6.60
2023-02-09T15:54:09.209Z,6.60
2023-02-09T15:56:37.323Z,6.60
2023-02-09T15:59:05.615Z,6.60
2023-02-09T16:01:34.613Z,6.60
2023-02-09T16:04:13.382Z,6.60
2023-02-09T16:06:45.398Z,6.50
2023-02-09T16:09:19.326Z,6.50
2023-02-09T16:11:48.507Z,6.50
2023-02-09T16:14:18.200Z,6.50
2023-02-09T16:16:45.841Z,6.50
2023-02-09T16:19:13.713Z,6.50
2023-02-09T16:21:44.244Z,6.50
2023-02-09T16:24:33.444Z,6.50
2023-02-09T16:27:02.018Z,6.40
2023-02-09T16:29:28.964Z,6.40
2023-02-09T16:31:55.965Z,6.40
2023-02-09T16:34:22.854Z,6.40
2023-02-09T16:36:50.040Z,6.40
2023-02-09T16:39:19.567Z,6.40
2023-02-09T16:41:47.200Z,6.40
2023-02-09T16:44:21.973Z,6.50
2023-02-09T16:46:52.541Z,6.50
2023-02-09T16:49:36.885Z,6.50
2023-02-09T16:52:19.264Z,6.50
2023-02-09T16:54:49.351Z,6.40
2023-02-09T16:57:19.809Z,6.40
2023-02-09T16:59:46.734Z,6.40
2023-02-09T17:02:36.849Z,6.40
2023-02-09T17:05:23.147Z,6.30
2023-02-09T17:07:55.532Z,6.20
2023-02-09T17:10:25.837Z,6.30
2023-02-09T17:12:53.874Z,6.30
2023-02-09T17:15:30.146Z,6.30
2023-02-09T17:18:05.836Z,6.20
2023-02-09T17:20:44.069Z,6.30
2023-02-09T17:23:16.142Z,6.30
2023-02-09T17:25:44.228Z,6.30
2023-02-09T17:28:11.850Z,6.20
2023-02-09T17:30:40.052Z,6.30
2023-02-09T17:33:10.777Z,6.30
2023-02-09T17:38:35.708Z,6.30
2023-02-09T17:41:05.759Z,6.30
2023-02-09T17:43:32.774Z,6.40
2023-02-09T17:45:59.784Z,6.30
2023-02-09T17:48:26.763Z,6.30
2023-02-09T17:50:57.942Z,6.30
2023-02-09T17:53:27.628Z,6.20
2023-02-09T17:55:56.406Z,6.30
2023-02-09T17:58:24.453Z,6.30
2023-02-09T18:00:53.432Z,6.30
2023-02-09T18:03:22.932Z,6.30
2023-02-09T18:05:58.673Z,6.30
2023-02-09T18:08:27.299Z,6.20
2023-02-09T18:10:57.940Z,6.30
2023-02-09T18:13:27.066Z,6.30
2023-02-09T18:15:54.734Z,6.30
2023-02-09T18:18:24.154Z,6.30
2023-02-09T18:20:51.355Z,6.30
2023-02-09T18:23:18.171Z,6.30
2023-02-09T18:25:47.600Z,6.30
2023-02-09T18:28:15.394Z,6.30
2023-02-09T18:30:43.064Z,6.30
2023-02-09T18:33:10.639Z,6.20
2023-02-09T18:35:41.565Z,6.20
2023-02-09T18:38:10.409Z,6.30
2023-02-09T18:40:39.056Z,6.20
2023-02-09T18:43:07.379Z,6.20
2023-02-09T18:45:34.423Z,6.30
2023-02-09T18:48:01.540Z,6.20
2023-02-09T18:50:31.078Z,6.30
2023-02-09T18:53:00.827Z,6.20
2023-02-09T18:55:30.771Z,6.20
2023-02-09T18:58:01.523Z,6.20
2023-02-09T19:00:29.139Z,6.20
2023-02-09T19:03:00.142Z,6.20
2023-02-09T19:05:30.162Z,6.20
2023-02-09T19:07:59.551Z,6.20
2023-02-09T19:10:26.873Z,6.20
2023-02-09T19:12:54.376Z,6.20
2023-02-09T19:15:22.541Z,6.20
2023-02-09T19:17:49.467Z,6.10
2023-02-09T19:20:19.773Z,6.10
2023-02-09T19:22:47.853Z,6.00
2023-02-09T19:25:15.328Z,6.10
2023-02-09T19:27:42.527Z,6.10
2023-02-09T19:30:14.045Z,6.10
2023-02-09T19:32:41.057Z,6.10
2023-02-09T19:35:08.423Z,6.10
2023-02-09T19:37:36.320Z,6.10
2023-02-09T19:40:21.118Z,6.10
2023-02-09T19:42:48.700Z,6.10
2023-02-09T19:45:16.030Z,6.20
2023-02-09T19:47:42.986Z,6.10
2023-02-09T19:50:10.689Z,6.20
2023-02-09T19:52:38.842Z,6.20
2023-02-09T19:55:06.288Z,6.10
2023-02-09T19:57:33.086Z,6.10
2023-02-09T19:59:59.972Z,6.10
2023-02-09T20:02:26.987Z,6.00
2023-02-09T20:04:53.898Z,6.00
2023-02-09T20:07:20.727Z,5.90
2023-02-09T20:09:47.674Z,5.90
2023-02-09T20:12:14.493Z,5.90
2023-02-09T20:14:41.323Z,5.90
2023-02-09T20:17:08.523Z,5.90
2023-02-09T20:19:39.284Z,5.90
2023-02-09T20:22:06.163Z,5.90
2023-02-09T20:24:33.218Z,6.00
2023-02-09T20:27:00.124Z,6.00
2023-02-09T20:29:27.002Z,6.00
2023-02-09T20:31:54.123Z,6.00
2023-02-09T20:34:21.332Z,6.00
2023-02-09T20:36:48.661Z,5.90
2023-02-09T20:39:16.524Z,5.90
2023-02-09T20:42:06.393Z,5.90
2023-02-09T20:44:52.739Z,5.80
2023-02-09T20:47:19.714Z,5.70
2023-02-09T20:49:46.564Z,5.70
2023-02-09T20:52:13.498Z,5.70
2023-02-09T20:54:40.514Z,5.80
2023-02-09T20:57:07.415Z,5.80
2023-02-09T20:59:35.015Z,5.80
2023-02-09T21:02:01.932Z,5.80
2023-02-09T21:04:30.186Z,5.70
2023-02-09T21:06:58.231Z,5.60
2023-02-09T21:09:26.637Z,5.50
2023-02-09T21:11:54.529Z,5.50
2023-02-09T21:14:32.548Z,5.50
2023-02-09T21:17:06.138Z,5.50
2023-02-09T21:19:34.526Z,5.60
2023-02-09T21:22:01.356Z,5.60
2023-02-09T21:24:28.291Z,5.60
2023-02-09T21:26:55.310Z,5.60
2023-02-09T21:29:22.196Z,5.60
2023-02-09T21:31:49.112Z,5.50
2023-02-09T21:34:17.057Z,5.50
2023-02-09T21:36:44.410Z,5.40
2023-02-09T21:39:11.280Z,5.40
2023-02-09T21:41:56.682Z,5.30
2023-02-09T21:44:23.538Z,5.30
2023-02-09T21:46:50.634Z,5.40
2023-02-09T21:49:17.536Z,5.40
2023-02-09T21:51:44.734Z,5.40
2023-02-09T21:54:14.485Z,5.40
2023-02-09T21:56:41.510Z,5.40
2023-02-09T21:59:08.457Z,5.50
2023-02-09T22:01:35.484Z,5.40
2023-02-09T22:04:02.376Z,5.40
2023-02-09T22:06:30.617Z,5.30
2023-02-09T22:09:00.248Z,5.30
2023-02-09T22:11:27.162Z,5.20
2023-02-09T22:13:54.128Z,5.20
2023-02-09T22:16:22.544Z,5.20
2023-02-09T22:18:50.046Z,5.10
2023-02-09T22:21:17.889Z,5.10
2023-02-09T22:23:44.793Z,5.00
2023-02-09T22:26:13.932Z,5.00
2023-02-09T22:28:41.564Z,5.00
2023-02-09T22:31:14.156Z,5.00
2023-02-09T22:33:41.219Z,5.00
2023-02-09T22:36:11.487Z,4.90
2023-02-09T22:38:38.664Z,4.90
2023-02-09T22:41:07.894Z,4.80
2023-02-09T22:43:35.205Z,4.80
2023-02-09T22:46:02.067Z,4.80
2023-02-09T22:48:28.892Z,4.70
2023-02-09T22:50:55.728Z,4.60
2023-02-09T22:53:22.579Z,4.60
2023-02-09T22:55:49.761Z,4.60
2023-02-09T22:58:16.624Z,4.60
2023-02-09T23:00:43.507Z,4.50
2023-02-09T23:03:10.357Z,4.60
2023-02-09T23:05:37.195Z,4.50
2023-02-09T23:08:04.204Z,4.50
2023-02-09T23:10:31.081Z,4.40
2023-02-09T23:12:57.940Z,4.40
2023-02-09T23:15:24.781Z,4.30
2023-02-09T23:17:51.745Z,4.30
2023-02-09T23:20:18.960Z,4.30
2023-02-09T23:22:46.515Z,4.30
2023-02-09T23:25:13.521Z,4.30
2023-02-09T23:27:40.641Z,4.20
2023-02-09T23:30:08.387Z,4.20
2023-02-09T23:32:35.315Z,4.10
2023-02-09T23:35:02.179Z,4.10
2023-02-09T23:37:37.656Z,4.10
2023-02-09T23:40:05.147Z,4.00
2023-02-09T23:42:32.032Z,4.10
2023-02-09T23:44:58.806Z,4.00
2023-02-09T23:47:25.600Z,4.00
2023-02-09T23:49:52.413Z,4.00
2023-02-09T23:52:19.223Z,4.00
2023-02-09T23:54:46.050Z,3.90
2023-02-09T23:57:12.984Z,3.90
2023-02-09T23:59:39.814Z,3.90
